Blue Diamond, NV (89004)

2:32 AM PDT en Octubre 24, 2014 (GMT -0700)
RAWS RED ROCK NV US | Change Station
CLOSE
Current Station
Estación meteorológica personal
Location: Blue Diamond, NV
Altura: 3755 ft
Estaciones meteorológicas cercanas

Alt 3755 ft 36.13 °N, 115.43 °W | Updated 58 minutes ago

Despejado
Despejado
58 ° F
Sensación térmica 58 ° F
N
3
Viento Variable Viento desde ONO
Gusts 7.0 mph

Hoy
Alta -- | Baja -- ° F
--% Posibilidad de precipitaciones
Ayer
Alta -- | Baja -- ° F
Precip. -- pul
6:56 AM 5:54 PM
Luna nueva, 0% visible
Presión 29.96 pul
Visibilidad 10.0 Millas
Nubes Despejado
Punto de rocío 30 ° F
Humedad 34%
Precipitaciones 0.00 pul
Espesor de la nieve No disponible.
UV 0 de una escala de 12
Polen 4.50 de una escala de 12
Ozono Buena
PM2.5 Moderada
Flu Activity No Activity
METAR KLAS 240856Z 22007KT 10SM CLR 20/02 A3001 RMK AO2 SLP143 T02000022 53003

More Conditions Fewer Conditions

Presión 29.96 pul
Visibilidad 10.0 Millas
Nubes Despejado
Punto de rocío 30 ° F
Humedad 34%
Precipitaciones 0.00 pul
Espesor de la nieve No disponible.
UV 0 de una escala de 12
Polen 4.50 de una escala de 12
Ozono Buena
PM2.5 Moderada
Flu Activity No Activity
METAR KLAS 240856Z 22007KT 10SM CLR 20/02 A3001 RMK AO2 SLP143 T02000022 53003

More Conditions Fewer Conditions

10-Day Weather Forecast

Almanac

Astronomía

Oct. 24, 2014 Salida Puesta
Hora real 6:56 AM PDT 5:54 PM PDT
Crepúsculo civil 6:30 AM PDT 6:20 PM PDT
Crepúsculo náutico 6:00 AM PDT 6:50 PM PDT
Crepúsculo astronómico 5:30 AM PDT 7:20 PM PDT
Luna 7:39 AM PDT 6:38 PM PDT
Horas de luz 11h 49m
Horas de luz
10h 57m
Tomorrow will be 2m 7s shorter.
Luna nueva, 0% of the Moon is Illuminated
Hoy
Luna nueva
Oct 30
Cuarto creciente
Nov 6
Luna llena
Nov 14
Cuarto menguante
Nov 22
Nueva

Extremos de hoy

Máximos del estado Bajos del estado

Community

WunderPhotos

Upload Photos

1,764,513 ¡fotos cargadas!

WunderBlogs® & News

Nearby

Calidad del aire

  Calidad del aire Índice AQ Contaminante
Ayer Buena
PM10
Ayer Buena
OZONE
Real Moderada
PM2.5
Real Buena
OZONE
Viernes Buena
PM10
Viernes Buena
OZONE
Sábado Buena
PM10
Sábado Buena
OZONE
Domingo Buena
PM10
Domingo Buena
OZONE
Lunes Buena
PM10
Lunes Buena
OZONE
Martes Buena
PM10
Martes Buena
OZONE

Grosos de nieve

Estación Profundido Altura
Ward Mountain 0 in 9200 ft
Diamond Peak 1 in 8000 ft
Big Creek Summit 1 in 8700 ft
Corral Canyon 0 in 8500 ft
Green Mountain 0 in 8000 ft

Actividad de terremotos

Ciudad Distance Mag. Tiempo y dato
No hay informes recientes de la actividad sísmica.
Magnitud mínima muestra es 2,5.

Temperaturas de aguas costeras

Lugar Temperatura
Sin partes meteorológicos de las estaciones

Estaciones meteorológicas cercanas